Terminal Aerodrome Forecast
Issued by NWS

Home | Current Version | Previous Version | Graphics & Text | Print | Product List | Glossary On
Versions: 1 2 3 4 5 6 7 8 9 10 11 12 13 14 15 16 17 18 19 20 21
000
FTUS43 KABR 220900 AAB
TAFPIR
TAF AMD
KPIR 220925Z 2209/2306 01010KT P6SM VCTS SCT090CB SCT150
      TEMPO 2209/2210 VRB15G25KT 6SM -TSRA SCT070 BKN090CB OVC150
     FM221700 05009KT P6SM FEW250
     FM230100 08006KT P6SM SKC=

USA.gov is the U.S. government's official web portal to all federal, state and local government web resources and services.